Time;durP1;ratioP1;P1;durP2;ratioP2;P2;SDS_P1;SDS_P2;PMS_P1;PMS_P2;Temp;Humidity;BMP_temperature;BMP_pressure;BME280_temperature;BME280_humidity;BME280_pressure;Samples;Min_cycle;Max_cycle;Signal;HPM_P1;HPM_P2
2022/09/29 00:01:16;;;;;;;7.73;6.93;;;9.10;99.90;;;;;;5145068;27;20203;-96
2022/09/29 00:03:43;;;;;;;10.57;9.00;;;9.10;99.90;;;;;;5144080;27;20438;-95
2022/09/29 00:06:14;;;;;;;10.83;7.63;;;9.30;99.90;;;;;;5146559;27;20224;-93
2022/09/29 00:08:42;;;;;;;8.87;7.13;;;9.30;99.90;;;;;;5146017;27;20224;-96
2022/09/29 00:11:11;;;;;;;6.90;6.30;;;9.30;99.90;;;;;;5146186;27;20202;-91
2022/09/29 00:13:43;;;;;;;7.77;6.90;;;9.30;99.90;;;;;;5146445;27;20194;-93
2022/09/29 00:16:13;;;;;;;9.97;6.80;;;9.40;99.90;;;;;;5146221;27;20643;-95
2022/09/29 00:18:40;;;;;;;9.37;6.97;;;9.20;99.90;;;;;;5146055;27;20204;-94
2022/09/29 00:21:11;;;;;;;8.00;6.57;;;9.20;99.90;;;;;;5157025;27;20259;-86
2022/09/29 00:23:38;;;;;;;8.43;6.90;;;9.20;99.90;;;;;;5157409;27;20194;-87
2022/09/29 00:26:13;;;;;;;10.07;7.00;;;9.20;99.90;;;;;;5158394;27;20242;-88
2022/09/29 00:28:47;;;;;;;7.17;5.90;;;9.10;99.90;;;;;;5157241;27;20206;-85
2022/09/29 00:31:14;;;;;;;9.63;6.77;;;9.10;99.90;;;;;;5157653;27;20208;-89
2022/09/29 00:33:41;;;;;;;10.30;8.05;;;9.10;99.90;;;;;;5157307;27;20423;-91
2022/09/29 00:36:12;;;;;;;12.07;6.80;;;9.30;99.90;;;;;;5157863;27;20210;-86
2022/09/29 00:38:41;;;;;;;8.13;6.93;;;9.30;99.90;;;;;;5157365;27;20228;-91
2022/09/29 00:41:09;;;;;;;9.03;7.00;;;9.30;99.90;;;;;;5155967;27;20204;-90
2022/09/29 00:44:02;;;;;;;7.70;6.83;;;9.40;99.90;;;;;;5151963;27;20636;-91
2022/09/29 00:47:11;;;;;;;7.47;6.80;;;9.50;99.90;;;;;;5146730;27;20219;-95
2022/09/29 00:49:56;;;;;;;7.57;6.87;;;9.50;99.90;;;;;;5147635;27;20252;-93
2022/09/29 00:52:34;;;;;;;8.27;7.20;;;9.60;99.90;;;;;;5145976;27;20187;-91
2022/09/29 00:55:25;;;;;;;10.30;7.97;;;9.60;99.90;;;;;;5145496;27;20188;-94
2022/09/29 00:58:18;;;;;;;10.80;8.30;;;9.60;99.90;;;;;;5147562;27;20271;-90
2022/09/29 01:00:57;;;;;;;9.07;7.43;;;9.50;99.90;;;;;;5146273;27;20207;-96
2022/09/29 01:03:28;;;;;;;12.27;7.53;;;9.50;99.90;;;;;;5142812;27;20205;-94
2022/09/29 01:06:01;;;;;;;10.03;7.80;;;9.40;99.90;;;;;;5142846;27;20211;-96
2022/09/29 01:08:35;;;;;;;9.27;7.53;;;9.50;99.90;;;;;;5143043;27;20232;-95
2022/09/29 01:11:06;;;;;;;9.20;8.20;;;9.60;99.90;;;;;;5143190;27;20195;-95
2022/09/29 01:13:35;;;;;;;9.10;8.17;;;9.60;99.90;;;;;;5143831;27;20203;-93
2022/09/29 01:16:04;;;;;;;11.43;8.30;;;9.60;99.90;;;;;;5143917;27;20615;-94
2022/09/29 01:18:37;;;;;;;9.10;8.30;;;9.60;99.90;;;;;;5143472;27;20183;-93
2022/09/29 01:21:13;;;;;;;12.77;8.53;;;9.60;99.90;;;;;;5144637;27;20203;-93
2022/09/29 01:24:24;;;;;;;9.93;8.60;;;9.60;99.90;;;;;;5143775;27;20264;-95
2022/09/29 01:27:22;;;;;;;10.67;9.47;;;9.60;99.90;;;;;;5142969;27;20717;-94
2022/09/29 01:30:12;;;;;;;9.67;8.70;;;9.70;99.90;;;;;;5143024;27;20192;-95
2022/09/29 01:33:21;;;;;;;12.70;11.45;;;9.50;99.90;;;;;;5141401;27;20906;-93
2022/09/29 01:36:03;;;;;;;10.57;9.03;;;9.30;99.90;;;;;;5133665;27;20258;-92
2022/09/29 01:38:42;;;;;;;10.17;9.13;;;9.40;99.90;;;;;;5141030;27;20207;-93
2022/09/29 01:41:16;;;;;;;9.73;8.53;;;9.30;99.90;;;;;;5141111;27;20200;-96
2022/09/29 01:43:51;;;;;;;10.10;8.83;;;9.30;99.90;;;;;;5140238;27;20199;-93
2022/09/29 01:46:26;;;;;;;11.03;8.83;;;9.10;99.90;;;;;;5140599;27;20565;-95
2022/09/29 01:48:56;;;;;;;12.07;8.70;;;9.10;99.90;;;;;;5141687;27;20191;-95
2022/09/29 01:51:29;;;;;;;10.80;8.73;;;9.00;99.90;;;;;;5141961;27;20267;-95
2022/09/29 01:54:03;;;;;;;12.73;8.33;;;9.00;99.90;;;;;;5142447;27;20208;-94
2022/09/29 01:56:36;;;;;;;10.17;8.00;;;8.90;99.90;;;;;;5142121;27;20210;-91
2022/09/29 01:59:11;;;;;;;10.27;7.73;;;8.80;99.90;;;;;;5142399;27;20196;-94
2022/09/29 02:01:44;;;;;;;11.77;9.20;;;8.90;99.90;;;;;;5142662;27;20420;-95
2022/09/29 02:04:17;;;;;;;8.87;7.07;;;9.00;99.90;;;;;;5143852;27;20204;-95
2022/09/29 02:06:49;;;;;;;10.67;7.57;;;9.10;99.90;;;;;;5142409;27;20250;-96
2022/09/29 02:09:23;;;;;;;7.60;6.33;;;9.10;99.90;;;;;;5141597;27;20234;-96
2022/09/29 02:11:52;;;;;;;7.20;6.53;;;9.00;99.90;;;;;;5141472;27;20234;-95
2022/09/29 02:14:25;;;;;;;8.27;6.80;;;9.00;99.90;;;;;;5142176;28;20219;-96
2022/09/29 02:17:02;;;;;;;8.20;6.40;;;9.00;99.90;;;;;;5141543;28;20661;-90
2022/09/29 02:19:37;;;;;;;9.57;6.37;;;8.80;99.90;;;;;;5142360;28;20194;-94
2022/09/29 02:22:08;;;;;;;9.47;6.80;;;8.90;99.90;;;;;;5143700;28;20188;-94
2022/09/29 02:24:36;;;;;;;11.37;7.23;;;9.00;99.90;;;;;;5146052;28;20209;-94
2022/09/29 02:27:05;;;;;;;8.03;6.60;;;8.90;99.90;;;;;;5144810;28;20219;-94
2022/09/29 02:29:33;;;;;;;9.33;6.73;;;8.80;99.90;;;;;;5145643;28;20226;-96
2022/09/29 02:32:08;;;;;;;8.37;7.17;;;8.80;99.90;;;;;;5144306;28;20661;-94
2022/09/29 02:34:40;;;;;;;11.57;6.93;;;8.60;99.90;;;;;;5145562;28;20263;-95
2022/09/29 02:37:20;;;;;;;9.60;6.57;;;8.60;99.90;;;;;;5145402;28;20198;-95
2022/09/29 02:40:03;;;;;;;10.70;6.40;;;8.50;99.90;;;;;;5143626;28;20199;-96
2022/09/29 02:42:39;;;;;;;11.27;6.87;;;8.50;99.90;;;;;;5139932;28;20188;-95
2022/09/29 02:45:25;;;;;;;8.97;6.87;;;8.60;99.90;;;;;;5137546;28;20210;-87
2022/09/29 02:48:08;;;;;;;9.03;6.50;;;8.60;99.90;;;;;;5134160;28;20211;-89
2022/09/29 02:50:45;;;;;;;10.27;7.00;;;8.60;99.90;;;;;;5136092;27;20215;-88
2022/09/29 02:53:25;;;;;;;10.63;6.67;;;8.60;99.90;;;;;;5138573;27;20527;-87
2022/09/29 02:56:03;;;;;;;9.70;6.77;;;8.50;99.90;;;;;;5138377;27;20670;-88
2022/09/29 02:58:37;;;;;;;7.93;6.37;;;8.40;99.90;;;;;;5138416;27;20184;-88
2022/09/29 03:01:07;;;;;;;9.40;6.77;;;8.30;99.90;;;;;;5138231;27;20187;-87
2022/09/29 03:03:34;;;;;;;9.83;7.17;;;8.20;99.90;;;;;;5138141;27;20196;-88
2022/09/29 03:06:02;;;;;;;8.37;6.83;;;8.30;99.90;;;;;;5138097;27;20218;-88
2022/09/29 03:08:31;;;;;;;9.83;6.77;;;8.20;99.90;;;;;;5138518;27;20232;-91
2022/09/29 03:10:58;;;;;;;9.10;6.43;;;8.20;99.90;;;;;;5137961;27;20252;-89
2022/09/29 03:13:25;;;;;;;8.47;6.83;;;8.20;99.90;;;;;;5138359;27;20192;-91
2022/09/29 03:15:53;;;;;;;9.43;7.23;;;8.20;99.90;;;;;;5137690;27;20675;-95
2022/09/29 03:18:21;;;;;;;10.50;7.00;;;8.20;99.90;;;;;;5138095;27;20740;-89
2022/09/29 03:20:48;;;;;;;10.50;7.37;;;8.20;99.90;;;;;;5138499;27;20214;-87
2022/09/29 03:23:21;;;;;;;8.90;7.07;;;8.20;99.90;;;;;;5137902;27;20650;-89
2022/09/29 03:25:49;;;;;;;11.30;7.30;;;8.10;99.90;;;;;;5137635;27;20569;-88
2022/09/29 03:28:18;;;;;;;10.80;7.40;;;8.10;99.90;;;;;;5138048;27;20232;-89
2022/09/29 03:30:45;;;;;;;7.97;7.17;;;8.20;99.90;;;;;;5124046;27;20569;-91
2022/09/29 03:33:12;;;;;;;10.37;7.53;;;8.20;99.90;;;;;;5129007;27;20208;-93
2022/09/29 03:35:41;;;;;;;9.27;7.90;;;8.10;99.90;;;;;;5136833;27;20203;-89
2022/09/29 03:38:08;;;;;;;14.50;7.73;;;8.10;99.90;;;;;;5136292;27;20208;-90
2022/09/29 03:40:36;;;;;;;10.87;7.70;;;8.10;99.90;;;;;;5137918;27;20556;-90
2022/09/29 03:43:06;;;;;;;8.87;7.60;;;8.00;99.90;;;;;;5138132;27;20195;-89
2022/09/29 03:45:32;;;;;;;11.20;7.20;;;7.90;99.90;;;;;;5137754;27;20199;-92
2022/09/29 03:47:59;;;;;;;11.17;7.80;;;8.00;99.90;;;;;;5137916;27;20220;-90
2022/09/29 03:50:26;;;;;;;9.97;8.03;;;7.80;99.90;;;;;;5137209;27;20198;-88
2022/09/29 03:52:53;;;;;;;10.87;7.43;;;7.80;99.90;;;;;;5137273;27;20573;-87
2022/09/29 03:55:20;;;;;;;11.67;8.43;;;7.70;99.90;;;;;;5137415;27;20206;-90
2022/09/29 03:57:47;;;;;;;11.10;7.53;;;7.70;99.90;;;;;;5136703;27;20196;-89
2022/09/29 04:00:16;;;;;;;13.63;11.10;;;7.60;99.90;;;;;;5135971;27;20423;-89
2022/09/29 04:02:43;;;;;;;13.20;9.27;;;7.70;99.90;;;;;;5135760;27;20444;-89
2022/09/29 04:05:09;;;;;;;12.23;8.97;;;7.50;99.90;;;;;;5136763;27;20210;-88
2022/09/29 04:07:36;;;;;;;13.10;8.73;;;7.50;99.90;;;;;;5136802;27;20231;-87
2022/09/29 04:10:04;;;;;;;9.43;8.03;;;7.50;99.90;;;;;;5136628;27;20613;-88
2022/09/29 04:12:33;;;;;;;9.30;8.33;;;7.60;99.90;;;;;;5136128;27;20302;-88
2022/09/29 04:15:01;;;;;;;10.40;8.37;;;7.60;99.90;;;;;;5136599;27;20222;-88
2022/09/29 04:17:29;;;;;;;10.47;8.10;;;7.70;99.90;;;;;;5136525;27;20231;-88
2022/09/29 04:19:56;;;;;;;10.43;8.53;;;7.60;99.90;;;;;;5136748;27;20199;-88
2022/09/29 04:22:23;;;;;;;13.13;9.67;;;7.40;99.90;;;;;;5136730;27;20211;-89
2022/09/29 04:24:50;;;;;;;12.87;8.57;;;7.40;99.90;;;;;;5135034;27;20558;-87
2022/09/29 04:27:18;;;;;;;11.07;8.30;;;7.40;99.90;;;;;;5136122;27;20222;-88
2022/09/29 04:29:45;;;;;;;12.40;8.97;;;7.30;99.90;;;;;;5136315;27;20639;-87
2022/09/29 04:32:12;;;;;;;10.07;8.47;;;7.30;99.90;;;;;;5136613;27;20200;-89
2022/09/29 04:34:41;;;;;;;10.73;8.53;;;7.20;99.90;;;;;;5136291;27;20631;-89
2022/09/29 04:37:10;;;;;;;11.57;8.20;;;7.20;99.90;;;;;;5136462;27;20287;-88
2022/09/29 04:39:37;;;;;;;12.00;8.53;;;7.30;99.90;;;;;;5136471;27;20188;-89
2022/09/29 04:42:04;;;;;;;11.17;8.20;;;7.40;99.90;;;;;;5135850;27;20636;-88
2022/09/29 04:44:31;;;;;;;15.20;8.60;;;7.40;99.90;;;;;;5136331;27;20192;-89
2022/09/29 04:46:59;;;;;;;15.53;9.00;;;7.40;99.90;;;;;;5136238;27;20198;-90
2022/09/29 04:49:26;;;;;;;14.03;8.43;;;7.40;99.90;;;;;;5136214;27;20633;-89
2022/09/29 04:51:54;;;;;;;11.77;8.57;;;7.40;99.90;;;;;;5136247;27;20281;-89
2022/09/29 04:54:21;;;;;;;12.40;8.60;;;7.30;99.90;;;;;;5136188;27;20639;-91
2022/09/29 04:56:49;;;;;;;12.37;9.27;;;7.40;99.90;;;;;;5136020;27;20200;-90
2022/09/29 04:59:17;;;;;;;15.23;11.23;;;7.40;99.90;;;;;;5135200;27;20442;-90
2022/09/29 05:01:44;;;;;;;14.27;9.73;;;7.40;99.90;;;;;;5122902;27;20595;-89
2022/09/29 05:04:12;;;;;;;17.07;9.77;;;7.40;99.90;;;;;;5114809;28;20544;-91
2022/09/29 05:06:39;;;;;;;14.63;9.43;;;7.40;99.90;;;;;;5113658;28;20627;-90
2022/09/29 05:09:08;;;;;;;16.03;8.63;;;7.30;99.90;;;;;;5114199;28;20235;-91
2022/09/29 05:11:35;;;;;;;12.87;8.80;;;7.40;99.90;;;;;;5114978;28;20204;-89
2022/09/29 05:14:02;;;;;;;14.10;9.17;;;7.50;99.90;;;;;;5114585;28;20679;-91
2022/09/29 05:16:30;;;;;;;11.10;7.83;;;7.50;99.90;;;;;;5114606;28;20227;-92
2022/09/29 05:18:57;;;;;;;10.70;8.30;;;7.50;99.90;;;;;;5114598;28;20644;-88
2022/09/29 05:21:24;;;;;;;16.67;9.33;;;7.40;99.90;;;;;;5120543;27;20195;-89
2022/09/29 05:23:51;;;;;;;10.67;7.93;;;7.40;99.90;;;;;;5128145;27;20199;-88
2022/09/29 05:26:19;;;;;;;12.87;8.73;;;7.40;99.90;;;;;;5126238;27;20200;-88
2022/09/29 05:28:47;;;;;;;12.73;8.40;;;7.40;99.90;;;;;;5125363;27;20208;-87
2022/09/29 05:31:15;;;;;;;12.63;8.57;;;7.50;99.90;;;;;;5128557;27;20200;-90
2022/09/29 05:33:42;;;;;;;14.83;7.73;;;7.50;99.90;;;;;;5129107;27;20675;-88
2022/09/29 05:36:11;;;;;;;14.37;8.40;;;7.50;99.90;;;;;;5123617;27;20203;-88
2022/09/29 05:38:38;;;;;;;16.50;8.93;;;7.50;99.90;;;;;;5120562;27;20222;-89
2022/09/29 05:41:06;;;;;;;15.13;9.00;;;7.60;99.90;;;;;;5124466;27;20208;-89
2022/09/29 05:43:34;;;;;;;13.30;8.97;;;7.50;99.90;;;;;;5125469;27;20204;-88
2022/09/29 05:46:01;;;;;;;13.20;8.80;;;7.60;99.90;;;;;;5125191;27;20296;-86
2022/09/29 05:48:29;;;;;;;13.90;8.60;;;7.60;99.90;;;;;;5124001;27;20224;-88
2022/09/29 05:50:57;;;;;;;17.50;8.50;;;7.50;99.90;;;;;;5121094;27;20503;-87
2022/09/29 05:53:26;;;;;;;12.27;8.47;;;7.40;99.90;;;;;;5127320;27;20643;-92
2022/09/29 05:55:53;;;;;;;13.67;8.70;;;7.40;99.90;;;;;;5130180;27;20200;-88
2022/09/29 05:58:20;;;;;;;14.87;8.43;;;7.30;99.90;;;;;;5134771;27;20203;-86
2022/09/29 06:00:49;;;;;;;18.27;11.40;;;7.20;99.90;;;;;;5132967;27;20431;-89
2022/09/29 06:03:15;;;;;;;22.53;10.97;;;7.50;99.90;;;;;;5134078;27;20195;-88
2022/09/29 06:05:42;;;;;;;15.97;10.47;;;7.60;99.90;;;;;;5133940;27;20223;-88
2022/09/29 06:08:09;;;;;;;17.90;11.00;;;7.60;99.90;;;;;;5118867;27;20742;-88
2022/09/29 06:10:36;;;;;;;27.40;12.17;;;7.60;99.90;;;;;;5113108;28;20196;-90
2022/09/29 06:13:05;;;;;;;14.20;9.80;;;7.60;99.90;;;;;;5113513;28;20208;-91
2022/09/29 06:15:32;;;;;;;15.57;9.33;;;7.60;99.90;;;;;;5113121;28;20686;-88
2022/09/29 06:18:00;;;;;;;14.27;9.27;;;7.60;99.90;;;;;;5113336;28;20560;-86
2022/09/29 06:20:29;;;;;;;13.80;8.83;;;7.60;99.90;;;;;;5113209;28;20257;-87
2022/09/29 06:22:56;;;;;;;12.13;8.67;;;7.70;99.90;;;;;;5113210;28;20203;-87
2022/09/29 06:25:23;;;;;;;13.37;8.57;;;7.80;99.90;;;;;;5113298;28;20196;-88
2022/09/29 06:27:51;;;;;;;13.83;8.73;;;7.80;99.90;;;;;;5117515;27;20200;-93
2022/09/29 06:30:20;;;;;;;17.03;11.13;;;7.80;99.90;;;;;;5115894;28;20490;-86
2022/09/29 06:32:47;;;;;;;16.10;9.43;;;8.20;99.90;;;;;;5121814;27;20300;-87
2022/09/29 06:38:01;;;;;;;14.40;8.90;;;8.20;99.90;;;;;;5128810;27;20268;-86
2022/09/29 06:40:28;;;;;;;17.20;8.47;;;8.20;99.90;;;;;;5121792;27;20208;-84
2022/09/29 06:42:55;;;;;;;16.03;8.67;;;8.30;99.90;;;;;;5125439;27;20192;-85
2022/09/29 06:45:22;;;;;;;10.30;8.13;;;8.20;99.90;;;;;;5137128;27;20211;-85
2022/09/29 06:47:49;;;;;;;17.03;9.23;;;8.20;99.90;;;;;;5124981;27;20636;-86
2022/09/29 06:50:17;;;;;;;16.37;8.50;;;8.20;99.90;;;;;;5117358;27;20662;-89
2022/09/29 06:52:44;;;;;;;12.70;8.30;;;8.30;99.90;;;;;;5116707;28;20273;-86
2022/09/29 06:55:11;;;;;;;11.40;7.57;;;8.20;99.90;;;;;;5116461;28;20211;-86
2022/09/29 06:57:39;;;;;;;13.00;7.87;;;8.10;99.90;;;;;;5117202;28;20209;-85
2022/09/29 07:00:07;;;;;;;11.83;8.27;;;8.30;99.90;;;;;;5117602;28;20215;-85
2022/09/29 07:02:34;;;;;;;14.73;7.73;;;8.50;99.90;;;;;;5134374;27;20258;-84
2022/09/29 07:05:00;;;;;;;13.23;8.37;;;8.30;99.90;;;;;;5137400;27;20618;-85
2022/09/29 07:07:28;;;;;;;11.67;8.33;;;8.50;99.90;;;;;;5137347;27;20195;-85
2022/09/29 07:09:56;;;;;;;17.27;10.53;;;8.60;99.90;;;;;;5137709;27;20227;-86
2022/09/29 07:12:23;;;;;;;16.60;9.93;;;8.70;99.90;;;;;;5137819;27;20196;-83
2022/09/29 07:14:50;;;;;;;24.20;9.63;;;8.70;99.90;;;;;;5138318;27;20200;-85
2022/09/29 07:17:17;;;;;;;17.63;9.60;;;8.70;99.90;;;;;;5138393;27;20207;-87
2022/09/29 07:19:44;;;;;;;12.77;8.40;;;8.80;99.90;;;;;;5138329;27;20283;-86
2022/09/29 07:22:12;;;;;;;15.17;9.70;;;9.10;99.90;;;;;;5137223;27;20647;-89
2022/09/29 07:24:42;;;;;;;12.93;8.80;;;9.20;99.90;;;;;;5138193;27;20230;-86
2022/09/29 07:27:09;;;;;;;11.83;8.97;;;9.30;99.90;;;;;;5138333;27;20628;-86
2022/09/29 07:29:36;;;;;;;12.63;8.23;;;9.50;99.90;;;;;;5138009;27;20291;-92
2022/09/29 07:32:04;;;;;;;14.20;7.73;;;9.50;99.90;;;;;;5137937;27;20215;-88
2022/09/29 07:34:30;;;;;;;13.77;8.27;;;9.40;99.90;;;;;;5138008;27;20204;-89
2022/09/29 07:36:58;;;;;;;11.23;8.03;;;9.50;99.90;;;;;;5137146;27;20203;-85
2022/09/29 07:39:25;;;;;;;9.97;7.23;;;9.60;99.90;;;;;;5137837;27;20211;-89
2022/09/29 07:41:55;;;;;;;13.03;8.03;;;9.70;99.90;;;;;;5138233;27;20203;-89
2022/09/29 07:44:23;;;;;;;11.27;6.90;;;9.60;99.90;;;;;;5137701;27;20204;-87
2022/09/29 07:46:50;;;;;;;13.43;7.23;;;9.80;99.90;;;;;;5137252;27;20572;-88
2022/09/29 07:49:17;;;;;;;13.57;7.33;;;9.70;99.90;;;;;;5137667;27;20234;-87
2022/09/29 07:51:43;;;;;;;13.20;7.30;;;9.80;99.90;;;;;;5138787;27;20223;-85
2022/09/29 07:54:10;;;;;;;12.17;7.17;;;10.00;99.90;;;;;;5138599;27;20199;-87
2022/09/29 07:56:37;;;;;;;12.37;7.93;;;10.20;99.90;;;;;;5126157;27;20655;-90
2022/09/29 07:59:06;;;;;;;13.20;7.03;;;10.40;99.90;;;;;;5137058;27;20189;-86
2022/09/29 08:01:34;;;;;;;10.40;7.57;;;10.50;99.90;;;;;;5141033;27;20207;-85
2022/09/29 08:04:01;;;;;;;11.03;7.53;;;10.50;99.90;;;;;;5139354;27;20223;-85
2022/09/29 08:06:28;;;;;;;17.10;7.60;;;10.60;99.90;;;;;;5137763;27;20272;-87
2022/09/29 08:08:56;;;;;;;13.20;7.53;;;10.70;99.90;;;;;;5133974;27;20231;-84
2022/09/29 08:11:23;;;;;;;16.23;6.97;;;10.70;99.90;;;;;;5117343;28;20295;-82
2022/09/29 08:13:52;;;;;;;14.10;7.33;;;10.70;99.90;;;;;;5116002;28;20209;-89
2022/09/29 08:16:20;;;;;;;11.60;7.90;;;10.60;99.90;;;;;;5117446;28;20226;-85
2022/09/29 08:18:47;;;;;;;12.50;7.33;;;10.70;99.90;;;;;;5116148;28;20767;-85
2022/09/29 08:21:14;;;;;;;19.87;7.90;;;10.80;99.90;;;;;;5115832;28;20681;-86
2022/09/29 08:23:43;;;;;;;11.17;6.23;;;10.90;99.90;;;;;;5116224;28;20544;-84
2022/09/29 08:26:12;;;;;;;11.10;6.50;;;10.90;99.90;;;;;;5116531;28;20207;-85
2022/09/29 08:28:40;;;;;;;12.20;6.13;;;11.10;99.90;;;;;;5116293;28;20201;-87
2022/09/29 08:31:09;;;;;;;13.50;6.57;;;11.20;99.90;;;;;;5116737;28;20192;-85
2022/09/29 08:33:38;;;;;;;9.73;5.63;;;11.20;99.90;;;;;;5116321;28;20200;-84
2022/09/29 08:36:13;;;;;;;8.90;5.80;;;11.30;99.90;;;;;;5116260;28;20202;-84
2022/09/29 08:38:41;;;;;;;6.40;5.33;;;11.40;99.90;;;;;;5116706;28;20197;-84
2022/09/29 08:41:26;;;;;;;6.70;5.80;;;11.50;99.90;;;;;;5133602;27;20199;-84
2022/09/29 08:43:57;;;;;;;9.50;5.27;;;11.60;99.90;;;;;;5136248;27;20289;-84
2022/09/29 08:46:27;;;;;;;7.70;5.53;;;11.80;99.90;;;;;;5136842;27;20230;-84
2022/09/29 08:48:58;;;;;;;5.43;4.60;;;11.90;99.90;;;;;;5135531;27;20214;-83
2022/09/29 08:51:30;;;;;;;7.03;4.57;;;12.00;99.90;;;;;;5136293;27;20199;-84
2022/09/29 08:54:02;;;;;;;9.57;4.57;;;12.00;99.90;;;;;;5125828;27;20192;-84
2022/09/29 08:56:29;;;;;;;6.93;4.70;;;12.10;99.90;;;;;;5116019;28;20433;-83
2022/09/29 08:58:56;;;;;;;5.67;4.20;;;12.30;99.90;;;;;;5115956;28;20443;-83
2022/09/29 09:01:34;;;;;;;5.27;3.90;;;12.20;99.90;;;;;;5115979;28;20204;-83
2022/09/29 09:04:35;;;;;;;7.80;3.90;;;12.20;99.90;;;;;;5116480;28;20256;-84
2022/09/29 09:07:10;;;;;;;4.47;3.97;;;12.20;99.90;;;;;;5096020;28;20218;-86
2022/09/29 09:09:58;;;;;;;4.43;4.03;;;12.20;99.90;;;;;;5118476;28;20234;-86
2022/09/29 09:12:47;;;;;;;6.07;3.97;;;12.40;99.90;;;;;;5117615;28;20274;-83
2022/09/29 09:15:30;;;;;;;4.70;3.60;;;12.50;99.90;;;;;;5117042;28;20189;-85
2022/09/29 09:18:13;;;;;;;4.60;3.23;;;12.60;99.90;;;;;;5116751;28;20199;-83
2022/09/29 09:20:45;;;;;;;4.70;3.30;;;12.90;99.90;;;;;;5115933;28;20212;-84
2022/09/29 09:23:18;;;;;;;3.27;2.83;;;12.90;99.90;;;;;;5115161;28;20200;-83
2022/09/29 09:25:49;;;;;;;4.90;2.93;;;13.00;99.90;;;;;;5115690;28;20209;-84
2022/09/29 09:28:18;;;;;;;5.93;3.27;;;13.00;99.90;;;;;;5116915;28;20200;-83
2022/09/29 09:30:50;;;;;;;3.33;2.87;;;12.80;99.90;;;;;;5115992;28;20325;-85
2022/09/29 09:33:23;;;;;;;5.00;3.23;;;12.70;99.90;;;;;;5116323;28;20200;-82
2022/09/29 09:35:54;;;;;;;4.73;2.97;;;12.90;99.90;;;;;;5117485;28;20192;-84
2022/09/29 09:38:24;;;;;;;7.07;3.17;;;13.10;99.90;;;;;;5117350;28;20282;-83
2022/09/29 09:40:54;;;;;;;3.63;2.60;;;13.20;99.90;;;;;;5130079;27;20196;-83
2022/09/29 09:43:27;;;;;;;6.03;2.70;;;13.30;99.90;;;;;;5136688;27;20199;-82
2022/09/29 09:46:00;;;;;;;2.93;2.73;;;13.40;99.90;;;;;;5135200;27;20281;-87
2022/09/29 09:48:32;;;;;;;6.60;2.70;;;13.20;99.90;;;;;;5134780;27;20188;-84
2022/09/29 09:51:21;;;;;;;3.77;2.73;;;13.40;99.90;;;;;;5134791;27;20259;-85
2022/09/29 09:53:51;;;;;;;5.10;2.80;;;13.70;99.90;;;;;;5134296;27;20579;-84
2022/09/29 09:56:28;;;;;;;5.00;2.67;;;13.80;99.90;;;;;;5135019;27;20204;-88
2022/09/29 09:59:15;;;;;;;3.57;3.10;;;13.70;99.90;;;;;;5134826;27;20199;-83
2022/09/29 10:01:42;;;;;;;4.00;1.60;;;13.60;99.90;;;;;;5134089;27;20230;-84
2022/09/29 10:04:12;;;;;;;2.43;2.07;;;13.80;99.90;;;;;;5134703;27;20230;-85
2022/09/29 10:06:41;;;;;;;3.03;2.03;;;13.70;99.90;;;;;;5134286;27;20222;-85
2022/09/29 10:09:13;;;;;;;4.50;2.67;;;13.70;99.90;;;;;;5134732;27;20247;-85
2022/09/29 10:11:41;;;;;;;2.77;2.57;;;13.70;99.90;;;;;;5134463;27;20230;-86
2022/09/29 10:14:13;;;;;;;5.33;2.40;;;13.80;99.90;;;;;;5134428;27;20203;-83
2022/09/29 10:16:44;;;;;;;3.63;2.70;;;13.90;99.90;;;;;;5133696;27;20639;-82
2022/09/29 10:19:11;;;;;;;4.77;3.23;;;14.00;99.90;;;;;;5133818;28;20203;-82
2022/09/29 10:21:42;;;;;;;3.40;2.80;;;13.90;99.90;;;;;;5134023;28;20204;-84
2022/09/29 10:24:27;;;;;;;2.83;2.63;;;14.10;99.90;;;;;;5133969;28;20210;-81
2022/09/29 10:26:56;;;;;;;4.83;2.63;;;14.20;99.90;;;;;;5133780;28;20568;-82
2022/09/29 10:29:28;;;;;;;3.07;2.77;;;14.30;99.90;;;;;;5134243;28;20302;-83
2022/09/29 10:32:05;;;;;;;3.37;2.27;;;14.50;99.90;;;;;;5133771;28;20204;-81
2022/09/29 10:34:34;;;;;;;2.47;2.27;;;14.50;99.90;;;;;;5134099;28;20206;-82
2022/09/29 10:37:03;;;;;;;2.60;2.40;;;14.60;99.90;;;;;;5133892;28;20645;-80
2022/09/29 10:39:33;;;;;;;5.27;3.27;;;14.70;99.90;;;;;;5133772;28;20698;-81
2022/09/29 10:41:59;;;;;;;3.30;2.10;;;14.80;99.90;;;;;;5133903;28;20195;-82
2022/09/29 10:44:31;;;;;;;3.43;2.40;;;14.60;99.90;;;;;;5133571;28;20682;-81
2022/09/29 10:46:59;;;;;;;1.70;1.60;;;14.60;99.90;;;;;;5133984;28;20210;-82
2022/09/29 10:49:28;;;;;;;1.70;1.60;;;14.70;99.90;;;;;;5133883;28;20198;-81
2022/09/29 10:52:01;;;;;;;2.93;2.47;;;14.70;99.90;;;;;;5133941;28;20277;-81
2022/09/29 10:54:33;;;;;;;30.00;4.22;;;15.00;99.90;;;;;;5133677;28;20781;-82
2022/09/29 10:57:11;;;;;;;2.97;1.90;;;15.30;99.90;;;;;;5133553;28;20203;-81
2022/09/29 10:59:46;;;;;;;3.80;1.93;;;15.60;99.90;;;;;;5133405;28;20659;-82
2022/09/29 11:02:20;;;;;;;2.90;1.77;;;15.60;99.90;;;;;;5133884;27;20208;-83
2022/09/29 11:04:48;;;;;;;4.50;1.60;;;15.90;99.90;;;;;;5137486;28;20208;-83
2022/09/29 11:07:15;;;;;;;4.23;1.50;;;16.00;99.90;;;;;;5138565;28;20204;-79
2022/09/29 11:09:44;;;;;;;1.27;1.17;;;15.80;99.90;;;;;;5137985;28;20227;-80
2022/09/29 11:12:31;;;;;;;2.10;1.00;;;15.70;99.90;;;;;;5141118;27;20211;-81
2022/09/29 11:14:58;;;;;;;2.33;0.97;;;15.60;99.90;;;;;;5139605;27;20208;-82
2022/09/29 11:17:26;;;;;;;2.10;1.13;;;15.50;99.90;;;;;;5137537;27;20205;-84
2022/09/29 11:19:55;;;;;;;1.03;1.00;;;15.50;99.90;;;;;;5137780;27;20211;-82
2022/09/29 11:22:47;;;;;;;1.10;0.80;;;15.60;99.90;;;;;;5137717;27;20195;-82
2022/09/29 11:25:38;;;;;;;2.40;0.77;;;15.70;99.90;;;;;;5138052;27;20199;-80
2022/09/29 11:28:23;;;;;;;2.10;0.97;;;15.90;99.90;;;;;;5137051;27;20207;-83
2022/09/29 11:31:07;;;;;;;1.33;0.67;;;15.90;99.90;;;;;;5137296;27;20700;-83
2022/09/29 11:33:43;;;;;;;3.17;1.00;;;15.90;99.90;;;;;;5137374;27;20204;-84
2022/09/29 11:36:22;;;;;;;3.13;0.87;;;16.10;99.90;;;;;;5137162;27;20209;-81
2022/09/29 11:39:01;;;;;;;2.20;0.90;;;16.20;99.90;;;;;;5137393;27;20244;-85
2022/09/29 11:41:46;;;;;;;1.30;0.83;;;16.40;99.90;;;;;;5137562;27;20206;-81
2022/09/29 11:44:29;;;;;;;0.77;0.77;;;16.50;99.90;;;;;;5137112;27;20206;-80
2022/09/29 11:47:13;;;;;;;5.97;1.20;;;16.60;99.90;;;;;;5137348;27;20227;-83
2022/09/29 11:49:54;;;;;;;1.63;1.00;;;16.70;99.90;;;;;;5137306;27;20189;-85
2022/09/29 11:52:49;;;;;;;2.77;0.80;;;16.90;99.90;;;;;;5136979;27;20228;-86
2022/09/29 11:55:30;;;;;;;1.30;0.60;;;16.80;99.90;;;;;;5133710;27;20438;-84
2022/09/29 11:58:10;;;;;;;2.17;0.83;;;16.90;99.90;;;;;;5136561;27;20578;-81
2022/09/29 12:00:51;;;;;;;1.13;0.50;;;16.50;99.90;;;;;;5136840;27;20697;-85
2022/09/29 12:03:30;;;;;;;1.07;0.70;;;16.20;99.90;;;;;;5136798;27;20201;-84
2022/09/29 12:06:32;;;;;;;1.87;0.80;;;16.30;99.90;;;;;;5137210;27;20210;-82
2022/09/29 12:09:29;;;;;;;0.93;0.57;;;16.60;99.90;;;;;;5128910;27;20766;-89
2022/09/29 12:12:03;;;;;;;0.87;0.83;;;16.70;99.90;;;;;;5142302;27;20284;-87
2022/09/29 12:14:53;;;;;;;0.50;0.50;;;16.80;99.90;;;;;;5145651;27;20189;-87
2022/09/29 12:17:24;;;;;;;0.67;0.40;;;16.70;99.90;;;;;;5146699;27;20224;-86
2022/09/29 12:20:02;;;;;;;2.23;0.60;;;16.60;99.90;;;;;;5140851;27;20286;-88
2022/09/29 12:22:29;;;;;;;2.90;0.80;;;16.50;99.90;;;;;;5139916;27;20188;-87
2022/09/29 12:24:59;;;;;;;0.60;0.60;;;16.40;99.90;;;;;;5139595;27;20264;-88
2022/09/29 12:27:32;;;;;;;0.70;0.53;;;16.30;99.90;;;;;;5145736;27;20232;-89
2022/09/29 12:30:15;;;;;;;0.90;0.80;;;16.30;99.90;;;;;;5143580;27;20230;-87
2022/09/29 12:32:57;;;;;;;2.90;0.73;;;16.10;99.90;;;;;;5143846;27;20206;-88
2022/09/29 12:35:36;;;;;;;0.50;0.50;;;15.90;99.90;;;;;;5147065;27;20230;-90
2022/09/29 12:38:15;;;;;;;0.67;0.67;;;15.80;99.90;;;;;;5147032;27;20194;-90
2022/09/29 12:40:47;;;;;;;0.50;0.50;;;15.60;99.90;;;;;;5144282;27;20672;-91
2022/09/29 12:43:21;;;;;;;0.73;0.47;;;15.30;99.90;;;;;;5143516;27;20239;-90
2022/09/29 12:45:59;;;;;;;0.37;0.37;;;15.10;99.90;;;;;;5146203;27;20197;-91
2022/09/29 12:48:50;;;;;;;2.33;0.60;;;14.90;99.90;;;;;;5153055;27;20199;-92
2022/09/29 12:51:24;;;;;;;1.33;0.53;;;14.70;99.90;;;;;;5147567;27;20228;-90
2022/09/29 12:54:03;;;;;;;0.70;0.70;;;14.80;99.90;;;;;;5138232;27;20431;-90
2022/09/29 12:56:35;;;;;;;1.63;0.60;;;15.00;99.90;;;;;;5137925;27;20208;-91
2022/09/29 12:59:07;;;;;;;0.90;0.60;;;14.90;99.90;;;;;;5140154;27;20196;-91
2022/09/29 13:01:37;;;;;;;1.83;1.60;;;15.30;99.90;;;;;;5141553;27;20234;-91
2022/09/29 13:04:32;;;;;;;0.87;0.87;;;14.90;99.90;;;;;;5141744;27;20193;-90
2022/09/29 13:07:39;;;;;;;2.10;1.97;;;14.90;99.90;;;;;;5140453;27;20226;-88
2022/09/29 13:10:34;;;;;;;0.63;0.63;;;15.00;99.90;;;;;;5138024;27;20208;-90
2022/09/29 13:13:13;;;;;;;0.43;0.40;;;15.10;99.90;;;;;;5138007;27;20205;-90
2022/09/29 13:15:56;;;;;;;0.70;0.70;;;15.20;99.90;;;;;;5137796;27;20198;-89
2022/09/29 13:19:09;;;;;;;2.50;0.60;;;15.20;99.90;;;;;;5137931;27;20198;-89